CFZKH CYQM-CYQM
Flight info
| Callsign | CFZKH |
|---|---|
| Flight time | 0h 4m |
| Altitude | 5000 |
| Route | YSU YYG YQM |
| Aircraft | PA44/L-VGDW/C |
Departure
| Time | 2026-04-25 22:49 |
|---|---|
| Airport | Greater Moncton Roméo LeBlanc International Airport (CYQM) |
Arrival
| Time | 2026-04-25 22:53 |
|---|---|
| Airport | Greater Moncton Roméo LeBlanc International Airport (CYQM) |
| Time | Latitude | Longitude | Altitude | Speed | Heading |
|---|---|---|---|---|---|
| 2026-04-25 22:30 | 46.10551 | -64.67379 | 227 ft | 0 kts | 309° |
| 2026-04-25 22:43 | 46.10562 | -64.67416 | 227 ft | 8 kts | 268° |
| 2026-04-25 22:43 | 46.10551 | -64.67500 | 227 ft | 9 kts | 236° |
| 2026-04-25 22:43 | 46.10528 | -64.67583 | 228 ft | 6 kts | 266° |
| 2026-04-25 22:44 | 46.10539 | -64.67591 | 228 ft | 0 kts | 36° |
| 2026-04-25 22:45 | 46.10545 | -64.67590 | 228 ft | 8 kts | 341° |
| 2026-04-25 22:46 | 46.10580 | -64.67729 | 227 ft | 16 kts | 276° |
| 2026-04-25 22:46 | 46.10588 | -64.67891 | 227 ft | 16 kts | 265° |
| 2026-04-25 22:46 | 46.10581 | -64.68055 | 228 ft | 16 kts | 268° |
| 2026-04-25 22:46 | 46.10576 | -64.68221 | 228 ft | 17 kts | 269° |
| 2026-04-25 22:47 | 46.10616 | -64.68358 | 229 ft | 15 kts | 311° |
| 2026-04-25 22:47 | 46.10690 | -64.68471 | 226 ft | 16 kts | 309° |
| 2026-04-25 22:47 | 46.10710 | -64.68629 | 226 ft | 16 kts | 267° |
| 2026-04-25 22:47 | 46.10703 | -64.68789 | 229 ft | 16 kts | 267° |
| 2026-04-25 22:48 | 46.10698 | -64.68965 | 228 ft | 19 kts | 268° |
| 2026-04-25 22:48 | 46.10690 | -64.69165 | 229 ft | 20 kts | 266° |
| 2026-04-25 22:48 | 46.10725 | -64.69261 | 231 ft | 10 kts | 29° |
| 2026-04-25 22:48 | 46.10836 | -64.69120 | 232 ft | 47 kts | 42° |
| 2026-04-25 22:49 | 46.11174 | -64.68667 | 416 ft | 71 kts | 37° |
| 2026-04-25 22:49 | 46.11551 | -64.68168 | 871 ft | 76 kts | 35° |
| 2026-04-25 22:49 | 46.11987 | -64.67629 | 1324 ft | 89 kts | 35° |
| 2026-04-25 22:49 | 46.12480 | -64.66955 | 1569 ft | 112 kts | 39° |
| 2026-04-25 22:50 | 46.13086 | -64.66189 | 1854 ft | 117 kts | 25° |
| 2026-04-25 22:50 | 46.13833 | -64.66232 | 1940 ft | 111 kts | 333° |
| 2026-04-25 22:50 | 46.14075 | -64.67299 | 1845 ft | 136 kts | 260° |
| 2026-04-25 22:50 | 46.13578 | -64.68449 | 1852 ft | 128 kts | 237° |
| 2026-04-25 22:51 | 46.12944 | -64.69305 | 1696 ft | 122 kts | 222° |
| 2026-04-25 22:51 | 46.12287 | -64.70000 | 1640 ft | 113 kts | 220° |
| 2026-04-25 22:51 | 46.11661 | -64.70617 | 1481 ft | 106 kts | 217° |
| 2026-04-25 22:51 | 46.11053 | -64.71135 | 1285 ft | 100 kts | 213° |
| 2026-04-25 22:52 | 46.10439 | -64.71567 | 1075 ft | 97 kts | 208° |
| 2026-04-25 22:52 | 46.09877 | -64.71343 | 1013 ft | 85 kts | 111° |
| 2026-04-25 22:52 | 46.09895 | -64.70556 | 763 ft | 79 kts | 54° |
| 2026-04-25 22:52 | 46.10102 | -64.70108 | 534 ft | 81 kts | 41° |
| 2026-04-25 22:53 | 46.10614 | -64.69411 | 262 ft | 70 kts | 37° |
| 2026-04-25 22:53 | 46.10920 | -64.69011 | 230 ft | 37 kts | 44° |
| 2026-04-25 22:53 | 46.10966 | -64.68948 | 228 ft | 0 kts | 44° |
| 2026-04-25 22:53 | 46.10969 | -64.68944 | 228 ft | 8 kts | 43° |
| 2026-04-25 22:54 | 46.11179 | -64.68672 | 230 ft | 68 kts | 44° |
| 2026-04-25 22:54 | 46.11525 | -64.68175 | 540 ft | 76 kts | 38° |
| 2026-04-25 22:54 | 46.11920 | -64.67513 | 892 ft | 92 kts | 41° |
| 2026-04-25 22:54 | 46.12408 | -64.66869 | 1370 ft | 99 kts | 37° |
| 2026-04-25 22:55 | 46.12954 | -64.66214 | 1778 ft | 105 kts | 32° |
| 2026-04-25 22:55 | 46.13529 | -64.65602 | 2251 ft | 101 kts | 33° |
| 2026-04-25 22:55 | 46.14073 | -64.64996 | 2720 ft | 98 kts | 40° |
| 2026-04-25 22:55 | 46.14371 | -64.64093 | 3193 ft | 100 kts | 59° |
| 2026-04-25 22:56 | 46.14655 | -64.63209 | 3656 ft | 95 kts | 55° |
| 2026-04-25 22:56 | 46.14929 | -64.62363 | 4122 ft | 91 kts | 54° |
| 2026-04-25 22:56 | 46.15190 | -64.61563 | 4592 ft | 85 kts | 53° |
| 2026-04-25 22:56 | 46.15435 | -64.60823 | 5051 ft | 79 kts | 52° |
| 2026-04-25 22:57 | 46.15744 | -64.59939 | 5015 ft | 120 kts | 55° |
| 2026-04-25 22:57 | 46.16135 | -64.58747 | 4984 ft | 138 kts | 57° |
| 2026-04-25 22:57 | 46.16549 | -64.57478 | 4984 ft | 141 kts | 57° |
| 2026-04-25 22:57 | 46.16968 | -64.56204 | 4983 ft | 143 kts | 57° |
| 2026-04-25 22:58 | 46.17398 | -64.54904 | 4976 ft | 144 kts | 57° |
| 2026-04-25 22:58 | 46.17830 | -64.53600 | 4977 ft | 144 kts | 57° |
| 2026-04-25 22:58 | 46.18265 | -64.52287 | 4978 ft | 145 kts | 57° |
| 2026-04-25 22:58 | 46.18701 | -64.50969 | 4972 ft | 146 kts | 57° |
| 2026-04-25 22:59 | 46.19137 | -64.49649 | 4974 ft | 145 kts | 57° |
| 2026-04-25 22:59 | 46.19572 | -64.48335 | 4977 ft | 145 kts | 57° |
| 2026-04-25 22:59 | 46.20006 | -64.47023 | 4978 ft | 145 kts | 57° |
| 2026-04-25 22:59 | 46.20437 | -64.45715 | 4976 ft | 144 kts | 57° |
| 2026-04-25 23:00 | 46.20866 | -64.44416 | 4976 ft | 143 kts | 57° |
| 2026-04-25 23:00 | 46.21295 | -64.43117 | 4977 ft | 143 kts | 57° |
| 2026-04-25 23:00 | 46.21724 | -64.41818 | 4976 ft | 143 kts | 57° |
| 2026-04-25 23:00 | 46.22151 | -64.40522 | 4975 ft | 142 kts | 57° |
| 2026-04-25 23:01 | 46.22577 | -64.39231 | 4974 ft | 142 kts | 57° |
| 2026-04-25 23:01 | 46.23001 | -64.37942 | 4975 ft | 142 kts | 57° |
| 2026-04-25 23:01 | 46.23423 | -64.36660 | 4969 ft | 141 kts | 57° |
| 2026-04-25 23:01 | 46.23845 | -64.35377 | 4972 ft | 141 kts | 57° |
| 2026-04-25 23:02 | 46.24266 | -64.34096 | 4976 ft | 141 kts | 57° |
| 2026-04-25 23:02 | 46.24688 | -64.32817 | 4967 ft | 141 kts | 57° |
| 2026-04-25 23:02 | 46.25109 | -64.31534 | 4971 ft | 142 kts | 58° |
| 2026-04-25 23:02 | 46.25528 | -64.30260 | 4973 ft | 142 kts | 58° |
| 2026-04-25 23:03 | 46.25953 | -64.28964 | 4975 ft | 143 kts | 58° |
| 2026-04-25 23:03 | 46.26379 | -64.27664 | 4976 ft | 143 kts | 58° |
| 2026-04-25 23:03 | 46.26807 | -64.26359 | 4965 ft | 144 kts | 58° |
| 2026-04-25 23:03 | 46.27236 | -64.25052 | 4970 ft | 144 kts | 58° |
| 2026-04-25 23:04 | 46.27665 | -64.23741 | 4965 ft | 145 kts | 58° |
| 2026-04-25 23:04 | 46.27950 | -64.22872 | 4968 ft | 144 kts | 58° |
| 2026-04-25 23:04 | 46.28524 | -64.21117 | 4960 ft | 144 kts | 58° |
| 2026-04-25 23:04 | 46.28952 | -64.19809 | 4962 ft | 144 kts | 58° |
| 2026-04-25 23:05 | 46.29373 | -64.18521 | 4959 ft | 143 kts | 58° |
| 2026-04-25 23:05 | 46.29798 | -64.17220 | 4955 ft | 143 kts | 58° |
| 2026-04-25 23:05 | 46.30101 | -64.16294 | 4961 ft | 142 kts | 58° |
| 2026-04-25 23:06 | 46.30504 | -64.15060 | 4957 ft | 142 kts | 58° |
| 2026-04-25 23:07 | 46.30923 | -64.13773 | 4955 ft | 141 kts | 58° |
| 2026-04-25 23:07 | 46.31341 | -64.12494 | 4955 ft | 141 kts | 58° |
| 2026-04-25 23:07 | 46.31754 | -64.11215 | 4959 ft | 140 kts | 59° |
| 2026-04-25 23:07 | 46.31879 | -64.09779 | 4799 ft | 154 kts | 94° |
| 2026-04-25 23:08 | 46.31383 | -64.08420 | 4516 ft | 151 kts | 124° |
| 2026-04-25 23:08 | 46.30704 | -64.07273 | 4076 ft | 149 kts | 124° |
| 2026-04-25 23:08 | 46.30045 | -64.06105 | 3517 ft | 153 kts | 121° |
| 2026-04-25 23:08 | 46.29419 | -64.04873 | 3077 ft | 148 kts | 119° |
| 2026-04-25 23:09 | 46.28834 | -64.03686 | 2707 ft | 142 kts | 119° |
| 2026-04-25 23:09 | 46.28271 | -64.02538 | 2320 ft | 138 kts | 119° |
| 2026-04-25 23:09 | 46.27913 | -64.01788 | 2067 ft | 135 kts | 115° |
| 2026-04-25 23:09 | 46.27707 | -64.00555 | 1687 ft | 121 kts | 75° |
| 2026-04-25 23:10 | 46.28084 | -63.99581 | 1482 ft | 102 kts | 38° |
| 2026-04-25 23:10 | 46.28650 | -63.99026 | 1471 ft | 103 kts | 29° |
| 2026-04-25 23:10 | 46.29265 | -63.98416 | 1480 ft | 111 kts | 31° |
| 2026-04-25 23:10 | 46.29907 | -63.97769 | 1488 ft | 114 kts | 31° |
| 2026-04-25 23:11 | 46.30565 | -63.97104 | 1491 ft | 116 kts | 32° |
| 2026-04-25 23:11 | 46.31229 | -63.96428 | 1497 ft | 117 kts | 31° |
| 2026-04-25 23:11 | 46.31900 | -63.95747 | 1500 ft | 118 kts | 31° |
| 2026-04-25 23:11 | 46.32574 | -63.95061 | 1502 ft | 118 kts | 32° |
| 2026-04-25 23:12 | 46.33245 | -63.94378 | 1502 ft | 115 kts | 31° |
| 2026-04-25 23:12 | 46.33876 | -63.93734 | 1491 ft | 108 kts | 31° |
| 2026-04-25 23:12 | 46.34472 | -63.93126 | 1486 ft | 102 kts | 31° |
| 2026-04-25 23:12 | 46.35047 | -63.92542 | 1476 ft | 100 kts | 30° |
| 2026-04-25 23:13 | 46.35609 | -63.91970 | 1468 ft | 95 kts | 31° |
| 2026-04-25 23:13 | 46.36103 | -63.91462 | 1446 ft | 81 kts | 30° |
| 2026-04-25 23:13 | 46.36529 | -63.91028 | 1418 ft | 70 kts | 30° |
| 2026-04-25 23:13 | 46.36931 | -63.90621 | 1400 ft | 70 kts | 28° |
| 2026-04-25 23:14 | 46.37302 | -63.90243 | 1371 ft | 61 kts | 30° |
| 2026-04-25 23:14 | 46.37632 | -63.89905 | 1342 ft | 56 kts | 28° |
| 2026-04-25 23:14 | 46.37937 | -63.89595 | 1308 ft | 51 kts | 29° |
| 2026-04-25 23:14 | 46.38223 | -63.89306 | 1292 ft | 51 kts | 26° |
| 2026-04-25 23:15 | 46.38554 | -63.88974 | 1293 ft | 64 kts | 29° |
| 2026-04-25 23:15 | 46.38933 | -63.88585 | 1229 ft | 71 kts | 29° |
| 2026-04-25 23:15 | 46.39351 | -63.88158 | 1127 ft | 75 kts | 31° |
| 2026-04-25 23:15 | 46.39771 | -63.87726 | 1000 ft | 73 kts | 31° |
| 2026-04-25 23:16 | 46.40190 | -63.87300 | 870 ft | 74 kts | 31° |
| 2026-04-25 23:16 | 46.40604 | -63.86886 | 750 ft | 70 kts | 31° |
| 2026-04-25 23:16 | 46.40997 | -63.86485 | 649 ft | 71 kts | 31° |
| 2026-04-25 23:16 | 46.41411 | -63.86047 | 535 ft | 77 kts | 31° |
| 2026-04-25 23:17 | 46.41859 | -63.85598 | 584 ft | 77 kts | 30° |
| 2026-04-25 23:17 | 46.42313 | -63.85172 | 935 ft | 81 kts | 29° |
| 2026-04-25 23:17 | 46.42786 | -63.84667 | 1351 ft | 87 kts | 31° |
| 2026-04-25 23:17 | 46.43282 | -63.84137 | 1773 ft | 90 kts | 31° |
| 2026-04-25 23:18 | 46.43798 | -63.83594 | 2195 ft | 93 kts | 31° |
| 2026-04-25 23:18 | 46.44327 | -63.83027 | 2605 ft | 96 kts | 31° |
| 2026-04-25 23:18 | 46.44870 | -63.82445 | 3009 ft | 98 kts | 31° |
| 2026-04-25 23:18 | 46.45426 | -63.81854 | 3412 ft | 100 kts | 31° |
| 2026-04-25 23:19 | 46.45988 | -63.81253 | 3814 ft | 101 kts | 31° |
| 2026-04-25 23:19 | 46.46551 | -63.80644 | 4208 ft | 101 kts | 31° |
| 2026-04-25 23:19 | 46.46983 | -63.79834 | 4594 ft | 111 kts | 67° |
| 2026-04-25 23:19 | 46.46803 | -63.78691 | 4976 ft | 127 kts | 117° |
| 2026-04-25 23:20 | 46.46153 | -63.77791 | 5361 ft | 129 kts | 130° |
| 2026-04-25 23:20 | 46.45521 | -63.76905 | 5760 ft | 124 kts | 127° |
| 2026-04-25 23:20 | 46.44891 | -63.76000 | 5660 ft | 133 kts | 127° |
| 2026-04-25 23:20 | 46.44215 | -63.75023 | 5444 ft | 140 kts | 128° |
| 2026-04-25 23:21 | 46.43514 | -63.74014 | 5251 ft | 143 kts | 128° |
| 2026-04-25 23:21 | 46.42803 | -63.72989 | 5058 ft | 144 kts | 129° |
| 2026-04-25 23:21 | 46.42096 | -63.71970 | 4904 ft | 143 kts | 128° |
| 2026-04-25 23:21 | 46.41402 | -63.70964 | 4783 ft | 139 kts | 128° |
| 2026-04-25 23:22 | 46.40761 | -63.70052 | 4931 ft | 121 kts | 128° |
| 2026-04-25 23:22 | 46.40191 | -63.69227 | 4984 ft | 115 kts | 126° |
| 2026-04-25 23:22 | 46.39612 | -63.68387 | 4973 ft | 117 kts | 127° |
| 2026-04-25 23:23 | 46.38461 | -63.66729 | 4975 ft | 118 kts | 127° |
| 2026-04-25 23:23 | 46.37881 | -63.65891 | 4977 ft | 118 kts | 127° |
| 2026-04-25 23:23 | 46.37300 | -63.65055 | 4980 ft | 118 kts | 127° |
| 2026-04-25 23:23 | 46.36716 | -63.64215 | 4974 ft | 118 kts | 127° |
| 2026-04-25 23:24 | 46.36134 | -63.63377 | 4978 ft | 118 kts | 127° |
| 2026-04-25 23:24 | 46.35554 | -63.62544 | 4975 ft | 117 kts | 127° |
| 2026-04-25 23:24 | 46.34977 | -63.61715 | 4972 ft | 117 kts | 127° |
| 2026-04-25 23:24 | 46.34376 | -63.60839 | 4990 ft | 133 kts | 127° |
| 2026-04-25 23:25 | 46.33670 | -63.59821 | 4989 ft | 151 kts | 129° |
| 2026-04-25 23:25 | 46.32900 | -63.58722 | 4990 ft | 158 kts | 129° |
| 2026-04-25 23:25 | 46.32106 | -63.57586 | 4983 ft | 163 kts | 129° |
| 2026-04-25 23:25 | 46.31294 | -63.56421 | 4990 ft | 165 kts | 129° |
| 2026-04-25 23:26 | 46.30473 | -63.55245 | 4986 ft | 167 kts | 130° |
| 2026-04-25 23:26 | 46.29648 | -63.54062 | 4982 ft | 167 kts | 130° |
| 2026-04-25 23:26 | 46.28820 | -63.52876 | 4981 ft | 168 kts | 129° |
| 2026-04-25 23:26 | 46.27993 | -63.51690 | 4984 ft | 167 kts | 129° |
| 2026-04-25 23:27 | 46.27165 | -63.50505 | 4971 ft | 167 kts | 129° |
| 2026-04-25 23:27 | 46.26341 | -63.49326 | 4983 ft | 166 kts | 130° |
| 2026-04-25 23:27 | 46.25517 | -63.48147 | 4975 ft | 167 kts | 130° |
| 2026-04-25 23:27 | 46.24692 | -63.46966 | 4974 ft | 167 kts | 130° |
| 2026-04-25 23:28 | 46.23876 | -63.45799 | 4975 ft | 168 kts | 129° |
| 2026-04-25 23:28 | 46.23041 | -63.44607 | 4975 ft | 169 kts | 129° |
| 2026-04-25 23:28 | 46.22205 | -63.43414 | 4974 ft | 170 kts | 130° |
| 2026-04-25 23:28 | 46.21365 | -63.42212 | 4964 ft | 170 kts | 130° |
| 2026-04-25 23:29 | 46.20521 | -63.41009 | 4975 ft | 171 kts | 130° |
| 2026-04-25 23:29 | 46.19674 | -63.39802 | 4972 ft | 171 kts | 130° |
| 2026-04-25 23:29 | 46.18827 | -63.38594 | 4973 ft | 171 kts | 130° |
| 2026-04-25 23:29 | 46.17984 | -63.37393 | 4976 ft | 170 kts | 130° |
| 2026-04-25 23:30 | 46.17146 | -63.36200 | 4978 ft | 168 kts | 129° |
| 2026-04-25 23:30 | 46.16315 | -63.35016 | 4976 ft | 168 kts | 130° |
| 2026-04-25 23:30 | 46.15481 | -63.33830 | 4969 ft | 169 kts | 130° |
| 2026-04-25 23:30 | 46.14643 | -63.32636 | 4964 ft | 170 kts | 130° |
| 2026-04-25 23:31 | 46.13801 | -63.31439 | 4967 ft | 170 kts | 130° |
| 2026-04-25 23:31 | 46.12956 | -63.30239 | 4972 ft | 171 kts | 130° |
| 2026-04-25 23:31 | 46.12112 | -63.29029 | 4971 ft | 170 kts | 128° |
| 2026-04-25 23:31 | 46.11586 | -63.27583 | 4961 ft | 160 kts | 94° |
| 2026-04-25 23:32 | 46.11452 | -63.26028 | 4963 ft | 153 kts | 88° |
| 2026-04-25 23:32 | 46.11310 | -63.24566 | 4605 ft | 143 kts | 90° |
| 2026-04-25 23:32 | 46.11163 | -63.23177 | 4245 ft | 138 kts | 89° |
| 2026-04-25 23:32 | 46.11018 | -63.21834 | 3896 ft | 134 kts | 89° |
| 2026-04-25 23:33 | 46.10877 | -63.20518 | 3545 ft | 132 kts | 89° |
| 2026-04-25 23:33 | 46.10737 | -63.19220 | 3206 ft | 130 kts | 89° |
| 2026-04-25 23:33 | 46.10615 | -63.17945 | 2854 ft | 124 kts | 81° |
| 2026-04-25 23:33 | 46.10938 | -63.16970 | 2486 ft | 104 kts | 25° |
| 2026-04-25 23:34 | 46.11592 | -63.16619 | 2220 ft | 94 kts | 9° |
| 2026-04-25 23:34 | 46.12160 | -63.16423 | 2199 ft | 76 kts | 10° |
| 2026-04-25 23:34 | 46.12673 | -63.16264 | 2185 ft | 75 kts | 10° |
| 2026-04-25 23:34 | 46.13186 | -63.16119 | 2181 ft | 76 kts | 8° |
| 2026-04-25 23:35 | 46.13705 | -63.15984 | 2174 ft | 76 kts | 8° |
| 2026-04-25 23:35 | 46.14222 | -63.15855 | 2224 ft | 70 kts | 8° |
| 2026-04-25 23:35 | 46.14651 | -63.15747 | 2349 ft | 59 kts | 8° |
| 2026-04-25 23:35 | 46.15073 | -63.15644 | 2339 ft | 63 kts | 7° |
| 2026-04-25 23:36 | 46.15530 | -63.15540 | 2344 ft | 69 kts | 9° |
| 2026-04-25 23:36 | 46.16019 | -63.15430 | 2356 ft | 73 kts | 8° |
| 2026-04-25 23:36 | 46.16525 | -63.15317 | 2361 ft | 75 kts | 7° |
| 2026-04-25 23:36 | 46.17045 | -63.15200 | 2369 ft | 76 kts | 7° |
| 2026-04-25 23:37 | 46.17565 | -63.15082 | 2363 ft | 75 kts | 7° |
| 2026-04-25 23:37 | 46.18098 | -63.14963 | 2294 ft | 82 kts | 7° |
| 2026-04-25 23:37 | 46.18688 | -63.14830 | 2171 ft | 89 kts | 7° |
| 2026-04-25 23:37 | 46.19321 | -63.14688 | 2042 ft | 95 kts | 7° |
| 2026-04-25 23:38 | 46.19980 | -63.14540 | 1906 ft | 97 kts | 8° |
| 2026-04-25 23:38 | 46.20655 | -63.14386 | 1767 ft | 97 kts | 7° |
| 2026-04-25 23:38 | 46.21307 | -63.14239 | 1625 ft | 93 kts | 7° |
| 2026-04-25 23:38 | 46.21934 | -63.14097 | 1494 ft | 90 kts | 6° |
| 2026-04-25 23:39 | 46.22549 | -63.13959 | 1376 ft | 90 kts | 7° |
| 2026-04-25 23:39 | 46.23172 | -63.13818 | 1239 ft | 89 kts | 7° |
| 2026-04-25 23:39 | 46.23726 | -63.13691 | 1096 ft | 71 kts | 6° |
| 2026-04-25 23:39 | 46.24158 | -63.13593 | 988 ft | 57 kts | 5° |
| 2026-04-25 23:40 | 46.24531 | -63.13510 | 890 ft | 52 kts | 6° |
| 2026-04-25 23:40 | 46.24914 | -63.13427 | 844 ft | 66 kts | 4° |
| 2026-04-25 23:40 | 46.25433 | -63.13312 | 733 ft | 83 kts | 5° |
| 2026-04-25 23:40 | 46.26006 | -63.13181 | 596 ft | 75 kts | 7° |
| 2026-04-25 23:41 | 46.26456 | -63.13079 | 505 ft | 61 kts | 6° |
| 2026-04-25 23:41 | 46.26914 | -63.12978 | 486 ft | 73 kts | 4° |
| 2026-04-25 23:41 | 46.27424 | -63.12869 | 742 ft | 80 kts | 5° |
| 2026-04-25 23:41 | 46.27943 | -63.12729 | 1246 ft | 80 kts | 9° |
| 2026-04-25 23:42 | 46.28518 | -63.12545 | 1637 ft | 88 kts | 10° |
| 2026-04-25 23:42 | 46.29133 | -63.12359 | 2020 ft | 93 kts | 9° |
| 2026-04-25 23:42 | 46.29778 | -63.12166 | 2388 ft | 97 kts | 10° |
| 2026-04-25 23:42 | 46.30441 | -63.11937 | 2741 ft | 99 kts | 14° |
| 2026-04-25 23:43 | 46.31086 | -63.12148 | 3031 ft | 108 kts | 323° |
| 2026-04-25 23:43 | 46.31179 | -63.13305 | 3296 ft | 136 kts | 261° |
| 2026-04-25 23:43 | 46.30804 | -63.14550 | 3636 ft | 129 kts | 269° |
| 2026-04-25 23:43 | 46.30622 | -63.15793 | 3974 ft | 126 kts | 270° |
| 2026-04-25 23:44 | 46.30384 | -63.17018 | 4309 ft | 126 kts | 266° |
| 2026-04-25 23:44 | 46.30123 | -63.18222 | 4646 ft | 125 kts | 266° |
| 2026-04-25 23:44 | 46.29855 | -63.19402 | 4977 ft | 122 kts | 266° |
| 2026-04-25 23:44 | 46.29591 | -63.20561 | 5303 ft | 121 kts | 266° |
| 2026-04-25 23:45 | 46.29325 | -63.21713 | 5627 ft | 120 kts | 266° |
| 2026-04-25 23:45 | 46.29062 | -63.22854 | 5956 ft | 121 kts | 267° |
| 2026-04-25 23:45 | 46.28780 | -63.24149 | 5800 ft | 147 kts | 264° |
| 2026-04-25 23:45 | 46.28439 | -63.25613 | 5629 ft | 159 kts | 263° |
| 2026-04-25 23:46 | 46.28079 | -63.27144 | 5457 ft | 163 kts | 262° |
| 2026-04-25 23:46 | 46.27716 | -63.28705 | 5277 ft | 164 kts | 262° |
| 2026-04-25 23:46 | 46.27354 | -63.30273 | 5101 ft | 165 kts | 262° |
| 2026-04-25 23:46 | 46.26991 | -63.31835 | 5002 ft | 160 kts | 262° |
| 2026-04-25 23:47 | 46.26643 | -63.33333 | 4996 ft | 155 kts | 263° |
| 2026-04-25 23:47 | 46.26309 | -63.34787 | 5000 ft | 151 kts | 263° |
| 2026-04-25 23:47 | 46.25982 | -63.36196 | 5000 ft | 149 kts | 264° |
| 2026-04-25 23:47 | 46.25652 | -63.37622 | 5001 ft | 150 kts | 263° |
| 2026-04-25 23:48 | 46.25319 | -63.39053 | 5003 ft | 150 kts | 263° |
| 2026-04-25 23:48 | 46.24987 | -63.40481 | 5002 ft | 150 kts | 263° |
| 2026-04-25 23:48 | 46.24656 | -63.41907 | 5005 ft | 150 kts | 264° |
| 2026-04-25 23:48 | 46.24321 | -63.43347 | 5006 ft | 152 kts | 263° |
| 2026-04-25 23:49 | 46.23984 | -63.44790 | 5004 ft | 152 kts | 263° |
| 2026-04-25 23:49 | 46.23646 | -63.46238 | 5003 ft | 152 kts | 263° |
| 2026-04-25 23:49 | 46.23309 | -63.47685 | 5005 ft | 153 kts | 263° |
| 2026-04-25 23:49 | 46.22970 | -63.49137 | 5006 ft | 152 kts | 263° |
| 2026-04-25 23:50 | 46.22631 | -63.50587 | 5005 ft | 151 kts | 263° |
| 2026-04-25 23:50 | 46.22294 | -63.52030 | 5009 ft | 152 kts | 263° |
| 2026-04-25 23:50 | 46.21955 | -63.53484 | 5011 ft | 153 kts | 263° |
| 2026-04-25 23:50 | 46.21613 | -63.54945 | 5012 ft | 154 kts | 263° |
| 2026-04-25 23:51 | 46.21270 | -63.56411 | 5014 ft | 155 kts | 263° |
| 2026-04-25 23:51 | 46.20925 | -63.57884 | 5010 ft | 155 kts | 263° |
| 2026-04-25 23:51 | 46.20579 | -63.59355 | 5013 ft | 155 kts | 263° |
| 2026-04-25 23:51 | 46.20234 | -63.60827 | 5015 ft | 155 kts | 263° |
| 2026-04-25 23:52 | 46.19888 | -63.62299 | 5017 ft | 155 kts | 263° |
| 2026-04-25 23:52 | 46.19543 | -63.63774 | 5016 ft | 155 kts | 263° |
| 2026-04-25 23:52 | 46.19195 | -63.65251 | 5017 ft | 156 kts | 263° |
| 2026-04-25 23:52 | 46.18846 | -63.66729 | 5021 ft | 156 kts | 263° |
| 2026-04-25 23:53 | 46.18499 | -63.68205 | 5018 ft | 155 kts | 263° |
| 2026-04-25 23:53 | 46.18151 | -63.69684 | 5016 ft | 156 kts | 263° |
| 2026-04-25 23:53 | 46.17803 | -63.71161 | 5017 ft | 156 kts | 263° |
| 2026-04-25 23:53 | 46.17453 | -63.72640 | 5020 ft | 156 kts | 263° |
| 2026-04-25 23:54 | 46.17104 | -63.74121 | 5017 ft | 156 kts | 263° |
| 2026-04-25 23:54 | 46.16755 | -63.75598 | 5022 ft | 156 kts | 263° |
| 2026-04-25 23:54 | 46.16407 | -63.77075 | 5019 ft | 156 kts | 263° |
| 2026-04-25 23:54 | 46.16056 | -63.78551 | 5018 ft | 156 kts | 263° |
| 2026-04-25 23:55 | 46.15707 | -63.80028 | 5023 ft | 155 kts | 263° |
| 2026-04-25 23:55 | 46.15358 | -63.81503 | 5016 ft | 155 kts | 263° |
| 2026-04-25 23:55 | 46.15008 | -63.82978 | 5017 ft | 156 kts | 263° |
| 2026-04-25 23:55 | 46.14662 | -63.84438 | 5018 ft | 156 kts | 263° |
| 2026-04-25 23:56 | 46.14310 | -63.85917 | 5026 ft | 156 kts | 263° |
| 2026-04-25 23:56 | 46.13960 | -63.87392 | 5016 ft | 156 kts | 263° |
| 2026-04-25 23:56 | 46.13610 | -63.88870 | 5014 ft | 156 kts | 263° |
| 2026-04-25 23:56 | 46.13257 | -63.90354 | 5024 ft | 157 kts | 263° |
| 2026-04-25 23:57 | 46.12902 | -63.91841 | 5021 ft | 157 kts | 263° |
| 2026-04-25 23:57 | 46.12547 | -63.93331 | 5021 ft | 157 kts | 263° |
| 2026-04-25 23:57 | 46.12193 | -63.94813 | 5024 ft | 156 kts | 263° |
| 2026-04-25 23:57 | 46.11842 | -63.96294 | 5026 ft | 156 kts | 263° |
| 2026-04-25 23:58 | 46.11608 | -63.97276 | 5026 ft | 156 kts | 263° |
| 2026-04-25 23:58 | 46.11253 | -63.98763 | 5022 ft | 157 kts | 263° |
| 2026-04-25 23:58 | 46.10896 | -64.00249 | 5024 ft | 157 kts | 263° |
| 2026-04-25 23:58 | 46.10542 | -64.01733 | 5026 ft | 156 kts | 263° |
| 2026-04-25 23:59 | 46.10188 | -64.03215 | 5025 ft | 156 kts | 263° |
| 2026-04-25 23:59 | 46.09833 | -64.04701 | 5026 ft | 157 kts | 263° |
| 2026-04-25 23:59 | 46.09475 | -64.06188 | 5024 ft | 157 kts | 263° |
| 2026-04-25 23:59 | 46.09119 | -64.07676 | 5024 ft | 157 kts | 263° |
| 2026-04-26 00:00 | 46.08641 | -64.09668 | 5026 ft | 158 kts | 263° |
| 2026-04-26 00:00 | 46.08404 | -64.10657 | 5025 ft | 158 kts | 263° |
| 2026-04-26 00:00 | 46.08045 | -64.12151 | 5027 ft | 158 kts | 263° |
| 2026-04-26 00:00 | 46.07686 | -64.13645 | 5026 ft | 158 kts | 263° |
| 2026-04-26 00:01 | 46.07328 | -64.15137 | 5032 ft | 158 kts | 263° |
| 2026-04-26 00:01 | 46.06967 | -64.16634 | 5031 ft | 158 kts | 263° |
| 2026-04-26 00:01 | 46.06606 | -64.18134 | 5033 ft | 159 kts | 263° |
| 2026-04-26 00:01 | 46.06243 | -64.19637 | 5029 ft | 159 kts | 263° |
| 2026-04-26 00:02 | 46.05882 | -64.21135 | 5035 ft | 158 kts | 263° |
| 2026-04-26 00:02 | 46.05522 | -64.22629 | 5036 ft | 158 kts | 263° |
| 2026-04-26 00:02 | 46.05161 | -64.24123 | 5032 ft | 158 kts | 263° |
| 2026-04-26 00:02 | 46.04799 | -64.25622 | 5030 ft | 158 kts | 263° |
| 2026-04-26 00:03 | 46.04437 | -64.27118 | 5035 ft | 158 kts | 263° |
| 2026-04-26 00:03 | 46.04075 | -64.28612 | 5044 ft | 158 kts | 263° |
| 2026-04-26 00:03 | 46.03720 | -64.30083 | 5033 ft | 158 kts | 263° |
| 2026-04-26 00:03 | 46.03356 | -64.31580 | 5039 ft | 158 kts | 263° |
| 2026-04-26 00:04 | 46.02995 | -64.33073 | 5038 ft | 158 kts | 263° |
| 2026-04-26 00:04 | 46.02633 | -64.34566 | 5033 ft | 158 kts | 263° |
| 2026-04-26 00:04 | 46.02271 | -64.36055 | 5039 ft | 158 kts | 263° |
| 2026-04-26 00:04 | 46.01909 | -64.37546 | 5033 ft | 158 kts | 263° |
| 2026-04-26 00:05 | 46.01545 | -64.39044 | 5033 ft | 158 kts | 263° |
| 2026-04-26 00:05 | 46.01181 | -64.40538 | 5040 ft | 158 kts | 263° |
| 2026-04-26 00:05 | 46.00818 | -64.42031 | 5043 ft | 158 kts | 263° |
| 2026-04-26 00:05 | 46.00454 | -64.43525 | 5034 ft | 158 kts | 263° |
| 2026-04-26 00:06 | 46.00089 | -64.45023 | 5036 ft | 158 kts | 263° |
| 2026-04-26 00:06 | 45.99724 | -64.46516 | 5039 ft | 158 kts | 263° |
| 2026-04-26 00:06 | 45.99355 | -64.48039 | 4888 ft | 164 kts | 262° |
| 2026-04-26 00:06 | 45.98973 | -64.49594 | 4728 ft | 165 kts | 262° |
| 2026-04-26 00:07 | 45.98595 | -64.51135 | 4570 ft | 165 kts | 262° |
| 2026-04-26 00:07 | 45.98214 | -64.52698 | 4412 ft | 166 kts | 262° |
| 2026-04-26 00:07 | 45.97830 | -64.54274 | 4247 ft | 167 kts | 262° |
| 2026-04-26 00:07 | 45.97444 | -64.55847 | 4088 ft | 167 kts | 262° |
| 2026-04-26 00:08 | 45.97059 | -64.57416 | 3932 ft | 166 kts | 262° |
| 2026-04-26 00:08 | 45.96676 | -64.58980 | 3770 ft | 166 kts | 261° |
| 2026-04-26 00:08 | 45.96292 | -64.60541 | 3604 ft | 165 kts | 261° |
| 2026-04-26 00:08 | 45.95912 | -64.62087 | 3451 ft | 163 kts | 261° |
| 2026-04-26 00:09 | 45.95536 | -64.63620 | 3290 ft | 162 kts | 261° |
| 2026-04-26 00:09 | 45.95160 | -64.65147 | 3130 ft | 162 kts | 261° |
| 2026-04-26 00:09 | 45.94787 | -64.66667 | 3016 ft | 159 kts | 261° |
| 2026-04-26 00:09 | 45.94420 | -64.68140 | 3015 ft | 155 kts | 261° |
| 2026-04-26 00:10 | 45.94065 | -64.69586 | 3019 ft | 153 kts | 261° |
| 2026-04-26 00:10 | 45.93713 | -64.71019 | 3020 ft | 151 kts | 261° |
| 2026-04-26 00:10 | 45.93361 | -64.72446 | 3016 ft | 152 kts | 261° |
| 2026-04-26 00:10 | 45.93010 | -64.73872 | 3018 ft | 151 kts | 261° |
| 2026-04-26 00:11 | 45.92663 | -64.75274 | 3021 ft | 150 kts | 261° |
| 2026-04-26 00:11 | 45.92329 | -64.76691 | 3024 ft | 148 kts | 267° |
| 2026-04-26 00:11 | 45.92450 | -64.78049 | 3044 ft | 134 kts | 308° |
| 2026-04-26 00:11 | 45.93044 | -64.79039 | 3033 ft | 131 kts | 321° |
| 2026-04-26 00:12 | 45.93666 | -64.79999 | 3025 ft | 130 kts | 319° |
| 2026-04-26 00:12 | 45.94278 | -64.80961 | 3024 ft | 131 kts | 320° |
| 2026-04-26 00:12 | 45.94890 | -64.81922 | 3023 ft | 130 kts | 320° |
| 2026-04-26 00:12 | 45.95504 | -64.82883 | 3017 ft | 130 kts | 320° |
| 2026-04-26 00:13 | 45.96115 | -64.83846 | 3027 ft | 131 kts | 320° |
| 2026-04-26 00:13 | 45.96732 | -64.84815 | 3029 ft | 132 kts | 319° |
| 2026-04-26 00:13 | 45.97429 | -64.85631 | 3043 ft | 128 kts | 343° |
| 2026-04-26 00:13 | 45.98202 | -64.85491 | 3045 ft | 106 kts | 36° |
| 2026-04-26 00:14 | 45.98706 | -64.84881 | 3024 ft | 86 kts | 33° |
| 2026-04-26 00:14 | 45.99161 | -64.84344 | 3022 ft | 83 kts | 34° |
| 2026-04-26 00:14 | 45.99596 | -64.83810 | 3027 ft | 81 kts | 35° |
| 2026-04-26 00:14 | 46.00018 | -64.83275 | 3006 ft | 79 kts | 36° |
| 2026-04-26 00:15 | 46.00404 | -64.82779 | 2975 ft | 71 kts | 35° |
| 2026-04-26 00:15 | 46.00763 | -64.82318 | 2944 ft | 72 kts | 36° |
| 2026-04-26 00:15 | 46.01157 | -64.81812 | 2854 ft | 80 kts | 37° |
| 2026-04-26 00:15 | 46.01584 | -64.81260 | 2737 ft | 85 kts | 38° |
| 2026-04-26 00:16 | 46.02028 | -64.80681 | 2615 ft | 87 kts | 38° |
| 2026-04-26 00:16 | 46.02486 | -64.80087 | 2491 ft | 90 kts | 38° |
| 2026-04-26 00:16 | 46.02950 | -64.79479 | 2367 ft | 91 kts | 38° |
| 2026-04-26 00:16 | 46.03419 | -64.78865 | 2235 ft | 91 kts | 39° |
| 2026-04-26 00:17 | 46.03889 | -64.78250 | 2109 ft | 92 kts | 39° |
| 2026-04-26 00:17 | 46.04361 | -64.77626 | 1980 ft | 92 kts | 40° |
| 2026-04-26 00:17 | 46.04835 | -64.77004 | 1854 ft | 92 kts | 40° |
| 2026-04-26 00:17 | 46.05307 | -64.76386 | 1725 ft | 91 kts | 40° |
| 2026-04-26 00:18 | 46.05775 | -64.75769 | 1592 ft | 92 kts | 41° |
| 2026-04-26 00:18 | 46.06248 | -64.75149 | 1466 ft | 92 kts | 41° |
| 2026-04-26 00:18 | 46.06717 | -64.74523 | 1339 ft | 93 kts | 41° |
| 2026-04-26 00:18 | 46.07202 | -64.73889 | 1206 ft | 94 kts | 41° |
| 2026-04-26 00:19 | 46.07692 | -64.73247 | 1061 ft | 96 kts | 43° |
| 2026-04-26 00:19 | 46.07701 | -64.73234 | 1058 ft | 96 kts | 43° |
| 2026-04-26 00:20 | 46.07787 | -64.73123 | 1034 ft | 96 kts | 39° |
| 2026-04-26 00:20 | 46.08273 | -64.72530 | 898 ft | 85 kts | 39° |
| 2026-04-26 00:20 | 46.08689 | -64.71974 | 784 ft | 78 kts | 40° |
| 2026-04-26 00:21 | 46.09073 | -64.71458 | 678 ft | 73 kts | 39° |
| 2026-04-26 00:21 | 46.09429 | -64.70976 | 586 ft | 71 kts | 40° |
| 2026-04-26 00:21 | 46.09795 | -64.70482 | 467 ft | 75 kts | 39° |
| 2026-04-26 00:21 | 46.10196 | -64.69970 | 393 ft | 78 kts | 39° |
| 2026-04-26 00:22 | 46.10606 | -64.69422 | 258 ft | 82 kts | 41° |
| 2026-04-26 00:22 | 46.10928 | -64.68994 | 230 ft | 20 kts | 44° |
| 2026-04-26 00:22 | 46.11005 | -64.68900 | 228 ft | 14 kts | 41° |
| 2026-04-26 00:22 | 46.11077 | -64.68801 | 227 ft | 15 kts | 41° |
| 2026-04-26 00:23 | 46.11155 | -64.68699 | 226 ft | 15 kts | 44° |
| 2026-04-26 00:23 | 46.11226 | -64.68604 | 228 ft | 13 kts | 41° |
| 2026-04-26 00:23 | 46.11265 | -64.68508 | 228 ft | 12 kts | 126° |
| 2026-04-26 00:23 | 46.11180 | -64.68488 | 227 ft | 14 kts | 178° |
| 2026-04-26 00:24 | 46.11074 | -64.68478 | 223 ft | 17 kts | 178° |
| 2026-04-26 00:24 | 46.10954 | -64.68472 | 223 ft | 17 kts | 178° |
| 2026-04-26 00:24 | 46.10835 | -64.68470 | 224 ft | 17 kts | 174° |
| 2026-04-26 00:24 | 46.10718 | -64.68458 | 225 ft | 17 kts | 174° |
| 2026-04-26 00:25 | 46.10629 | -64.68376 | 229 ft | 15 kts | 129° |
| 2026-04-26 00:25 | 46.10575 | -64.68253 | 228 ft | 15 kts | 84° |
| 2026-04-26 00:25 | 46.10582 | -64.68097 | 228 ft | 16 kts | 89° |
| 2026-04-26 00:25 | 46.10586 | -64.67936 | 228 ft | 16 kts | 87° |
| 2026-04-26 00:26 | 46.10591 | -64.67770 | 227 ft | 16 kts | 105° |
| 2026-04-26 00:26 | 46.10583 | -64.67577 | 227 ft | 21 kts | 88° |
| 2026-04-26 00:26 | 46.10591 | -64.67372 | 227 ft | 18 kts | 88° |
| 2026-04-26 00:26 | 46.10547 | -64.67323 | 227 ft | 10 kts | 178° |
| 2026-04-26 00:27 | 46.10516 | -64.67313 | 227 ft | 4 kts | 105° |
| 2026-04-26 00:27 | 46.10518 | -64.67284 | 227 ft | 0 kts | 40° |
| 2026-04-26 00:27 | 46.10521 | -64.67282 | 227 ft | 0 kts | 12° |